EDT,Max TemperatureF,Mean TemperatureF,Min TemperatureF,Max Dew PointF,MeanDew PointF,Min DewpointF,Max Humidity, Mean Humidity, Min Humidity, Max Sea Level PressureIn, Mean Sea Level PressureIn, Min Sea Level PressureIn, Max VisibilityMiles, Mean VisibilityMiles, Min VisibilityMiles, Max Wind SpeedMPH, Mean Wind SpeedMPH, Max Gust SpeedMPH,PrecipitationIn, CloudCover, Events, WindDirDegrees
2013-6-1,75,70,64,66,64,63,100,84,68,29.93,29.83,29.74,10,9,2,26,12,33,0.58,7,Rain-Thunderstorm,196
2013-6-2,69,59,49,63,57,45,97,82,67,30.01,29.86,29.75,10,10,9,20,11,26,T,6,Rain,268
2013-6-3,69,58,47,48,44,37,93,66,39,30.11,30.05,30.01,10,10,10,15,5,21,0.00,3,,11
2013-6-4,73,60,47,51,47,43,89,65,41,30.19,30.14,30.10,10,10,10,15,7,21,0.00,3,,69
2013-6-5,77,65,52,53,48,41,71,57,43,30.14,30.05,29.94,10,10,10,18,10,23,0.00,5,,73
2013-6-6,75,66,57,57,51,44,84,67,49,29.94,29.87,29.83,10,10,10,15,9,20,0.00,5,,64
2013-6-7,75,65,54,55,53,51,93,71,49,29.92,29.88,29.86,10,8,4,13,6,22,0.00,5,,59
2013-6-8,78,64,49,55,51,48,96,67,38,30.04,29.98,29.93,10,9,4,10,3,14,0.00,4,,149
2013-6-9,84,73,62,65,59,54,87,62,37,30.06,29.99,29.88,10,8,5,22,7,28,0.04,7,Rain,132
2013-6-10,80,73,65,66,64,62,100,79,58,29.88,29.80,29.75,10,8,2,20,9,24,0.33,7,Rain,216
2013-6-11,85,74,63,66,63,61,100,74,48,29.96,29.90,29.84,10,8,4,22,6,29,T,4,Rain-Thunderstorm,271
2013-6-12,89,77,65,74,68,63,100,78,56,29.93,29.80,29.65,10,6,0,36,8,47,1.28,6,Fog-Rain-Thunderstorm,237
2013-6-13,79,70,60,66,60,53,100,71,42,29.96,29.76,29.57,10,10,6,21,11,29,0.05,6,Rain-Thunderstorm,319
2013-6-14,80,68,56,60,56,53,93,68,42,30.09,30.03,29.96,10,10,10,13,4,16,0.00,2,,348
2013-6-15,78,69,59,66,61,56,93,77,60,30.11,30.04,29.95,10,10,6,15,5,20,0.01,6,Rain,197
2013-6-16,80,72,64,69,66,62,93,78,62,29.94,29.92,29.90,10,9,2,20,9,26,0.09,6,Rain-Thunderstorm,250
2013-6-17,86,76,66,68,65,59,100,71,42,29.96,29.93,29.89,10,8,2,12,5,15,0.00,6,,252
2013-6-18,79,70,61,66,60,55,90,71,52,30.04,29.94,29.87,10,10,8,18,8,21,0.00,6,,44
2013-6-19,78,66,54,56,52,47,89,63,36,30.16,30.11,30.06,10,10,10,10,4,14,0.00,1,,76
2013-6-20,85,71,56,64,58,51,86,67,47,30.20,30.17,30.14,10,10,10,8,3,12,0.00,3,,114
2013-6-21,87,76,64,63,60,56,87,61,35,30.20,30.15,30.02,10,10,10,18,7,23,0.00,5,,196
2013-6-22,90,79,68,72,67,64,90,71,52,30.11,30.07,30.02,10,10,7,30,7,40,T,6,Rain-Thunderstorm,213
2013-6-23,89,78,66,70,66,63,93,67,41,30.11,30.06,30.01,10,8,2,33,9,40,0.52,4,Rain-Thunderstorm,201
2013-6-24,85,76,67,70,67,63,100,78,55,30.12,30.05,29.94,10,8,2,41,8,63,0.14,5,Rain-Thunderstorm,226
2013-6-25,89,78,67,74,69,65,100,78,55,30.01,29.94,29.84,10,9,2,22,9,28,0.02,5,Rain-Thunderstorm,235
2013-6-26,84,76,67,73,68,66,97,83,69,29.92,29.84,29.74,10,8,1,29,6,38,0.80,7,Rain-Thunderstorm,207
2013-6-27,86,77,68,72,69,66,100,81,61,29.78,29.74,29.67,10,6,1,18,7,23,0.22,6,Rain-Thunderstorm,290
2013-6-28,81,74,66,67,64,58,100,73,45,29.67,29.62,29.57,10,10,7,16,9,27,0.01,3,Fog-Thunderstorm,274
2013-6-29,80,71,62,65,63,60,100,78,56,29.71,29.62,29.57,10,7,0,8,3,20,1.11,6,Fog-Rain-Thunderstorm,291
2013-6-30,74,69,63,64,61,59,100,84,68,29.92,29.80,29.71,10,8,2,21,9,25,0.71,8,Rain,44